createdAt,value
2022-11-10T00:00:24.000Z,281.75
2022-11-10T00:02:30.000Z,281.75
2022-11-10T00:03:57.000Z,281.76
2022-11-10T00:06:03.000Z,281.77
2022-11-10T00:07:30.000Z,281.75
2022-11-10T00:09:36.000Z,281.7
2022-11-10T00:11:02.000Z,281.73
2022-11-10T00:13:09.000Z,281.7
2022-11-10T00:14:35.000Z,281.69
2022-11-10T00:16:41.000Z,281.7
2022-11-10T00:18:08.000Z,281.7
2022-11-10T00:20:14.000Z,281.7
2022-11-10T00:21:40.000Z,281.73
2022-11-10T00:23:47.000Z,281.72
2022-11-10T00:25:13.000Z,281.69
2022-11-10T00:27:19.000Z,281.65
2022-11-10T00:30:10.000Z,281.61
2022-11-10T00:31:37.000Z,281.56
2022-11-10T00:33:43.000Z,281.51
2022-11-10T00:35:09.000Z,281.47
2022-11-10T00:37:15.000Z,281.39
2022-11-10T00:38:42.000Z,281.35
2022-11-10T00:40:48.000Z,281.33
2022-11-10T00:42:14.000Z,281.32
2022-11-10T00:44:21.000Z,281.29
2022-11-10T00:45:47.000Z,281.22
2022-11-10T00:47:53.000Z,281.19
2022-11-10T00:49:20.000Z,281.12
2022-11-10T00:51:26.000Z,281.08
2022-11-10T00:52:52.000Z,281.03
2022-11-10T00:54:59.000Z,280.97
2022-11-10T00:56:25.000Z,280.93
2022-11-10T00:58:31.000Z,280.89
2022-11-10T00:59:58.000Z,280.82
2022-11-10T01:02:04.000Z,280.78
2022-11-10T01:03:30.000Z,280.69
2022-11-10T01:05:37.000Z,280.65
2022-11-10T01:08:28.000Z,280.59
2022-11-10T01:09:54.000Z,280.51
2022-11-10T01:12:00.000Z,280.42
2022-11-10T01:13:27.000Z,280.32
2022-11-10T01:15:33.000Z,280.27
2022-11-10T01:16:59.000Z,280.21
2022-11-10T01:19:06.000Z,280.16
2022-11-10T01:20:32.000Z,280.09
2022-11-10T01:22:38.000Z,280.05
2022-11-10T01:24:05.000Z,279.98
2022-11-10T01:26:11.000Z,279.91
2022-11-10T01:27:37.000Z,279.88
2022-11-10T01:29:43.000Z,279.86
2022-11-10T01:31:10.000Z,279.88
2022-11-10T01:33:16.000Z,279.91
2022-11-10T01:34:43.000Z,279.93
2022-11-10T01:36:49.000Z,279.93
2022-11-10T01:38:15.000Z,279.96
2022-11-10T01:40:21.000Z,279.98
2022-11-10T01:41:48.000Z,279.98
2022-11-10T01:43:54.000Z,279.96
2022-11-10T01:46:45.000Z,279.92
2022-11-10T01:48:12.000Z,279.91
2022-11-10T01:50:18.000Z,279.91
2022-11-10T01:51:45.000Z,279.89
2022-11-10T01:53:51.000Z,279.88
2022-11-10T01:55:17.000Z,279.82
2022-11-10T01:57:23.000Z,279.81
2022-11-10T01:58:50.000Z,279.81
2022-11-10T02:00:56.000Z,279.8
2022-11-10T02:02:23.000Z,279.8
2022-11-10T02:04:29.000Z,279.77
2022-11-10T02:05:55.000Z,279.77
2022-11-10T02:08:01.000Z,279.77
2022-11-10T02:09:28.000Z,279.81
2022-11-10T02:11:34.000Z,279.81
2022-11-10T02:13:00.000Z,279.84
2022-11-10T02:15:06.000Z,279.85
2022-11-10T02:16:33.000Z,279.85
2022-11-10T02:18:39.000Z,279.86
2022-11-10T02:20:06.000Z,279.91
2022-11-10T02:22:12.000Z,279.91
2022-11-10T02:25:03.000Z,279.98
2022-11-10T02:26:30.000Z,279.99
2022-11-10T02:28:36.000Z,279.98
2022-11-10T02:30:02.000Z,279.98
2022-11-10T02:32:08.000Z,279.96
2022-11-10T02:33:35.000Z,279.99
2022-11-10T02:35:41.000Z,280
2022-11-10T02:37:07.000Z,280.03
2022-11-10T02:39:14.000Z,280.05
2022-11-10T02:40:40.000Z,280.1
2022-11-10T02:42:46.000Z,280.14
2022-11-10T02:44:13.000Z,280.2
2022-11-10T02:46:19.000Z,280.18
2022-11-10T02:47:45.000Z,280.17
2022-11-10T02:49:51.000Z,280.17
2022-11-10T02:51:18.000Z,280.17
2022-11-10T02:53:24.000Z,280.18
2022-11-10T02:54:51.000Z,280.2
2022-11-10T02:56:57.000Z,280.24
2022-11-10T02:58:24.000Z,280.24
2022-11-10T03:00:30.000Z,280.25
2022-11-10T03:03:21.000Z,280.3
2022-11-10T03:04:48.000Z,280.3
2022-11-10T03:06:54.000Z,280.32
2022-11-10T03:08:21.000Z,280.31
2022-11-10T03:10:27.000Z,280.34
2022-11-10T03:11:54.000Z,280.31
2022-11-10T03:14:00.000Z,280.27
2022-11-10T03:15:29.000Z,280.25
2022-11-10T03:17:35.000Z,280.23
2022-11-10T03:19:01.000Z,280.23
2022-11-10T03:21:07.000Z,280.21
2022-11-10T03:22:34.000Z,280.18
2022-11-10T03:24:40.000Z,280.16
2022-11-10T03:26:06.000Z,280.12
2022-11-10T03:28:13.000Z,280.09
2022-11-10T03:29:39.000Z,280.06
2022-11-10T03:31:45.000Z,280
2022-11-10T03:33:12.000Z,279.93
2022-11-10T03:35:18.000Z,279.89
2022-11-10T03:36:44.000Z,279.82
2022-11-10T03:38:50.000Z,279.76
2022-11-10T03:41:41.000Z,279.63
2022-11-10T03:43:08.000Z,279.58
2022-11-10T03:45:14.000Z,279.51
2022-11-10T03:46:41.000Z,279.44
2022-11-10T03:48:49.000Z,279.4
2022-11-10T03:50:20.000Z,279.35
2022-11-10T03:52:26.000Z,279.31
2022-11-10T03:53:52.000Z,279.27
2022-11-10T03:55:58.000Z,279.24
2022-11-10T03:57:25.000Z,279.22
2022-11-10T03:59:31.000Z,279.24
2022-11-10T04:00:57.000Z,279.27
2022-11-10T04:03:04.000Z,279.31
2022-11-10T04:04:30.000Z,279.34
2022-11-10T04:06:36.000Z,279.38
2022-11-10T04:08:03.000Z,279.41
2022-11-10T04:10:09.000Z,279.44
2022-11-10T04:11:35.000Z,279.47
2022-11-10T04:13:42.000Z,279.45
2022-11-10T04:15:08.000Z,279.44
2022-11-10T04:17:14.000Z,279.41
2022-11-10T04:20:06.000Z,279.33
2022-11-10T04:21:32.000Z,279.27
2022-11-10T04:23:38.000Z,279.22
2022-11-10T04:25:05.000Z,279.15
2022-11-10T04:27:11.000Z,279.09
2022-11-10T04:28:37.000Z,279.06
2022-11-10T04:30:44.000Z,279.05
2022-11-10T04:32:10.000Z,279.01
2022-11-10T04:34:16.000Z,278.94
2022-11-10T04:35:43.000Z,278.89
2022-11-10T04:37:49.000Z,278.85
2022-11-10T04:39:15.000Z,278.82
2022-11-10T04:41:21.000Z,278.81
2022-11-10T04:42:48.000Z,278.79
2022-11-10T04:44:54.000Z,278.76
2022-11-10T04:46:20.000Z,278.75
2022-11-10T04:48:26.000Z,278.69
2022-11-10T04:49:53.000Z,278.65
2022-11-10T04:51:59.000Z,278.64
2022-11-10T04:53:26.000Z,278.6
2022-11-10T04:55:32.000Z,278.57
2022-11-10T04:58:23.000Z,278.51
2022-11-10T04:59:50.000Z,278.49
2022-11-10T05:01:56.000Z,278.46
2022-11-10T05:03:22.000Z,278.42
2022-11-10T05:05:29.000Z,278.4
2022-11-10T05:06:55.000Z,278.37
2022-11-10T05:09:02.000Z,278.35
2022-11-10T05:10:28.000Z,278.33
2022-11-10T05:12:34.000Z,278.32
2022-11-10T05:14:01.000Z,278.29
2022-11-10T05:16:07.000Z,278.26
2022-11-10T05:17:33.000Z,278.24
2022-11-10T05:19:39.000Z,278.2
2022-11-10T05:21:06.000Z,278.18
2022-11-10T05:23:12.000Z,278.18
2022-11-10T05:24:38.000Z,278.14
2022-11-10T05:26:44.000Z,278.11
2022-11-10T05:28:11.000Z,278.09
2022-11-10T05:30:17.000Z,278.09
2022-11-10T05:31:44.000Z,278.16
2022-11-10T05:33:56.000Z,278.25
2022-11-10T05:36:48.000Z,278.26
2022-11-10T05:38:14.000Z,278.3
2022-11-10T05:40:20.000Z,278.33
2022-11-10T05:41:47.000Z,278.33
2022-11-10T05:43:53.000Z,278.44
2022-11-10T05:45:19.000Z,278.49
2022-11-10T05:47:25.000Z,278.49
2022-11-10T05:48:52.000Z,278.47
2022-11-10T05:50:58.000Z,278.47
2022-11-10T05:52:24.000Z,278.49
2022-11-10T05:54:31.000Z,278.58
2022-11-10T05:55:57.000Z,278.69
2022-11-10T05:58:03.000Z,278.78
2022-11-10T05:59:30.000Z,278.9
2022-11-10T06:01:36.000Z,279.01
2022-11-10T06:03:02.000Z,278.89
2022-11-10T06:05:09.000Z,278.81
2022-11-10T06:06:35.000Z,278.74
2022-11-10T06:08:41.000Z,278.68
2022-11-10T06:10:08.000Z,278.62
2022-11-10T06:12:15.000Z,278.6
2022-11-10T06:15:06.000Z,278.51
2022-11-10T06:16:32.000Z,278.46
2022-11-10T06:18:39.000Z,278.42
2022-11-10T06:20:05.000Z,278.37
2022-11-10T06:22:11.000Z,278.33
2022-11-10T06:23:38.000Z,278.29
2022-11-10T06:25:44.000Z,278.28
2022-11-10T06:27:10.000Z,278.25
2022-11-10T06:29:16.000Z,278.24
2022-11-10T06:30:43.000Z,278.22
2022-11-10T06:32:49.000Z,278.22
2022-11-10T06:34:15.000Z,278.17
2022-11-10T06:36:22.000Z,278.16
2022-11-10T06:37:48.000Z,278.14
2022-11-10T06:39:54.000Z,278.11
2022-11-10T06:41:21.000Z,278.1
2022-11-10T06:43:31.000Z,278.07
2022-11-10T06:44:57.000Z,278.06
2022-11-10T06:47:04.000Z,278.03
2022-11-10T06:48:30.000Z,278
2022-11-10T06:50:36.000Z,278.02
2022-11-10T06:53:27.000Z,277.97
2022-11-10T06:54:54.000Z,277.95
2022-11-10T06:57:01.000Z,277.95
2022-11-10T06:58:27.000Z,277.95
2022-11-10T07:00:33.000Z,277.95
2022-11-10T07:02:00.000Z,277.95
2022-11-10T07:04:06.000Z,277.93
2022-11-10T07:05:46.000Z,277.95
2022-11-10T07:07:52.000Z,277.95
2022-11-10T07:09:18.000Z,277.95
2022-11-10T07:11:24.000Z,277.95
2022-11-10T07:12:51.000Z,277.97
2022-11-10T07:14:57.000Z,277.97
2022-11-10T07:16:24.000Z,277.99
2022-11-10T07:18:30.000Z,278.02
2022-11-10T07:19:57.000Z,278.03
2022-11-10T07:22:03.000Z,278.04
2022-11-10T07:23:37.000Z,278.06
2022-11-10T07:25:43.000Z,278.07
2022-11-10T07:27:09.000Z,278.14
2022-11-10T07:29:16.000Z,278.24
2022-11-10T07:32:06.000Z,278.3
2022-11-10T07:33:33.000Z,278.37
2022-11-10T07:35:39.000Z,278.4
2022-11-10T07:37:05.000Z,278.44
2022-11-10T07:39:12.000Z,278.46
2022-11-10T07:40:38.000Z,278.53
2022-11-10T07:42:44.000Z,278.58
2022-11-10T07:44:11.000Z,278.67
2022-11-10T07:46:17.000Z,278.71
2022-11-10T07:47:43.000Z,278.78
2022-11-10T07:49:49.000Z,278.85
2022-11-10T07:51:16.000Z,278.92
2022-11-10T07:53:22.000Z,278.92
2022-11-10T07:54:49.000Z,279.02
2022-11-10T07:56:55.000Z,279.09
2022-11-10T07:58:22.000Z,279.19
2022-11-10T08:00:28.000Z,279.27
2022-11-10T08:01:54.000Z,279.34
2022-11-10T08:04:01.000Z,279.4
2022-11-10T08:05:27.000Z,279.45
2022-11-10T08:07:34.000Z,279.49
2022-11-10T08:10:25.000Z,279.54
2022-11-10T08:11:51.000Z,279.6
2022-11-10T08:13:58.000Z,279.67
2022-11-10T08:15:24.000Z,279.74
2022-11-10T08:17:30.000Z,279.8
2022-11-10T08:18:57.000Z,279.84
2022-11-10T08:21:03.000Z,279.88
2022-11-10T08:22:29.000Z,279.96
2022-11-10T08:24:36.000Z,280.05
2022-11-10T08:26:02.000Z,280.12
2022-11-10T08:28:08.000Z,280.21
2022-11-10T08:29:35.000Z,280.32
2022-11-10T08:31:41.000Z,280.45
2022-11-10T08:33:07.000Z,280.62
2022-11-10T08:35:14.000Z,280.73
2022-11-10T08:36:40.000Z,280.84
2022-11-10T08:38:46.000Z,280.93
2022-11-10T08:40:13.000Z,281.03
2022-11-10T08:42:19.000Z,281.11
2022-11-10T08:43:45.000Z,281.15
2022-11-10T08:45:52.000Z,281.19
2022-11-10T08:48:43.000Z,281.29
2022-11-10T08:50:09.000Z,281.29
2022-11-10T08:52:15.000Z,281.35
2022-11-10T08:53:42.000Z,281.37
2022-11-10T08:55:48.000Z,281.37
2022-11-10T08:57:15.000Z,281.4
2022-11-10T08:59:21.000Z,281.43
2022-11-10T09:00:47.000Z,281.43
2022-11-10T09:02:53.000Z,281.45
2022-11-10T09:04:20.000Z,281.45
2022-11-10T09:06:26.000Z,281.47
2022-11-10T09:07:53.000Z,281.51
2022-11-10T09:09:59.000Z,281.55
2022-11-10T09:11:33.000Z,281.61
2022-11-10T09:13:39.000Z,281.63
2022-11-10T09:15:06.000Z,281.69
2022-11-10T09:17:12.000Z,281.73
2022-11-10T09:18:38.000Z,281.77
2022-11-10T09:20:45.000Z,281.82
2022-11-10T09:22:11.000Z,281.87
2022-11-10T09:24:17.000Z,281.88
2022-11-10T09:27:08.000Z,281.88
2022-11-10T09:28:35.000Z,281.89
2022-11-10T09:30:41.000Z,281.91
2022-11-10T09:32:08.000Z,281.94
2022-11-10T09:34:14.000Z,281.96
2022-11-10T09:35:40.000Z,281.98
2022-11-10T09:37:46.000Z,281.99
2022-11-10T09:39:13.000Z,282.02
2022-11-10T09:41:19.000Z,282.02
2022-11-10T09:42:45.000Z,282.02
2022-11-10T09:44:51.000Z,282.02
2022-11-10T09:46:18.000Z,282.03
2022-11-10T09:48:24.000Z,282.05
2022-11-10T09:49:51.000Z,282.06
2022-11-10T09:51:57.000Z,282.09
2022-11-10T09:53:24.000Z,282.09
2022-11-10T09:55:30.000Z,282.08
2022-11-10T09:56:56.000Z,282.08
2022-11-10T09:59:02.000Z,282.08
2022-11-10T10:00:29.000Z,282.08
2022-11-10T10:02:35.000Z,282.08
2022-11-10T10:05:26.000Z,282.09
2022-11-10T10:06:52.000Z,282.12
2022-11-10T10:09:17.000Z,282.14
2022-11-10T10:10:43.000Z,282.17
2022-11-10T10:12:49.000Z,282.19
2022-11-10T10:14:16.000Z,282.24
2022-11-10T10:16:22.000Z,282.26
2022-11-10T10:17:49.000Z,282.3
2022-11-10T10:19:55.000Z,282.35
2022-11-10T10:21:22.000Z,282.39
2022-11-10T10:23:28.000Z,282.41
2022-11-10T10:25:28.000Z,282.41
2022-11-10T10:27:34.000Z,282.41
2022-11-10T10:29:01.000Z,282.43
2022-11-10T10:31:07.000Z,282.49
2022-11-10T10:32:34.000Z,282.5
2022-11-10T10:34:40.000Z,282.53
2022-11-10T10:36:06.000Z,282.59
2022-11-10T10:38:12.000Z,282.61
2022-11-10T10:39:39.000Z,282.64
2022-11-10T10:41:45.000Z,282.67
2022-11-10T10:44:36.000Z,282.7
2022-11-10T10:46:03.000Z,282.75
2022-11-10T10:48:09.000Z,282.79
2022-11-10T10:49:35.000Z,282.88
2022-11-10T10:51:41.000Z,282.91
2022-11-10T10:53:08.000Z,282.91
2022-11-10T10:55:14.000Z,282.89
2022-11-10T10:56:41.000Z,282.91
2022-11-10T10:58:47.000Z,282.93
2022-11-10T11:00:13.000Z,282.95
2022-11-10T11:02:19.000Z,282.92
2022-11-10T11:03:46.000Z,282.91
2022-11-10T11:05:52.000Z,282.95
2022-11-10T11:07:18.000Z,283.02
2022-11-10T11:09:25.000Z,283.03
2022-11-10T11:10:51.000Z,283.06
2022-11-10T11:12:57.000Z,283.07
2022-11-10T11:14:24.000Z,283.09
2022-11-10T11:16:30.000Z,283.11
2022-11-10T11:17:57.000Z,283.17
2022-11-10T11:20:03.000Z,283.25
2022-11-10T11:22:54.000Z,283.34
2022-11-10T11:24:20.000Z,283.38
2022-11-10T11:26:26.000Z,283.43
2022-11-10T11:27:53.000Z,283.45
2022-11-10T11:29:59.000Z,283.44
2022-11-10T11:31:26.000Z,283.41
2022-11-10T11:33:32.000Z,283.4
2022-11-10T11:34:58.000Z,283.4
2022-11-10T11:37:04.000Z,283.4
2022-11-10T11:38:37.000Z,283.4
2022-11-10T11:40:43.000Z,283.4
2022-11-10T11:42:10.000Z,283.4
2022-11-10T11:44:16.000Z,283.36
2022-11-10T11:45:42.000Z,283.32
2022-11-10T11:47:48.000Z,283.3
2022-11-10T11:49:15.000Z,283.25
2022-11-10T11:51:21.000Z,283.18
2022-11-10T11:52:48.000Z,283.16
2022-11-10T11:54:54.000Z,283.11
2022-11-10T11:56:20.000Z,283.1
2022-11-10T11:58:26.000Z,283.11
2022-11-10T12:01:17.000Z,283.11
2022-11-10T12:02:44.000Z,283.1
2022-11-10T12:04:57.000Z,283.09
2022-11-10T12:06:24.000Z,283.09
2022-11-10T12:08:30.000Z,283.1
2022-11-10T12:09:56.000Z,283.11
2022-11-10T12:12:02.000Z,283.1
2022-11-10T12:13:29.000Z,283.1
2022-11-10T12:15:35.000Z,283.13
2022-11-10T12:17:01.000Z,283.11
2022-11-10T12:19:07.000Z,283.1
2022-11-10T12:20:34.000Z,283.07
2022-11-10T12:22:40.000Z,283.1
2022-11-10T12:24:06.000Z,283.13
2022-11-10T12:26:16.000Z,283.18
2022-11-10T12:27:43.000Z,283.27
2022-11-10T12:29:49.000Z,283.32
2022-11-10T12:31:15.000Z,283.38
2022-11-10T12:33:21.000Z,283.45
2022-11-10T12:34:48.000Z,283.55
2022-11-10T12:36:54.000Z,283.61
2022-11-10T12:39:45.000Z,283.69
2022-11-10T12:41:12.000Z,283.79
2022-11-10T12:43:18.000Z,283.83
2022-11-10T12:44:44.000Z,283.84
2022-11-10T12:46:50.000Z,283.9
2022-11-10T12:48:18.000Z,283.98
2022-11-10T12:50:25.000Z,284
2022-11-10T12:51:51.000Z,283.98
2022-11-10T12:53:57.000Z,283.97
2022-11-10T12:55:24.000Z,283.96
2022-11-10T12:57:30.000Z,283.97
2022-11-10T12:58:56.000Z,283.97
2022-11-10T13:01:02.000Z,283.96
2022-11-10T13:02:29.000Z,283.97
2022-11-10T13:04:35.000Z,283.94
2022-11-10T13:06:02.000Z,283.93
2022-11-10T13:08:08.000Z,283.93
2022-11-10T13:09:34.000Z,283.93
2022-11-10T13:11:40.000Z,283.93
2022-11-10T13:13:07.000Z,284
2022-11-10T13:15:13.000Z,284.01
2022-11-10T13:18:04.000Z,284.04
2022-11-10T13:19:31.000Z,284.12
2022-11-10T13:21:37.000Z,284.16
2022-11-10T13:23:03.000Z,284.2
2022-11-10T13:25:09.000Z,284.24
2022-11-10T13:26:36.000Z,284.26
2022-11-10T13:28:42.000Z,284.29
2022-11-10T13:30:09.000Z,284.3
2022-11-10T13:32:15.000Z,284.31
2022-11-10T13:33:41.000Z,284.3
2022-11-10T13:35:48.000Z,284.3
2022-11-10T13:37:21.000Z,284.3
2022-11-10T13:39:27.000Z,284.31
2022-11-10T13:40:53.000Z,284.3
2022-11-10T13:42:59.000Z,284.31
2022-11-10T13:44:26.000Z,284.29
2022-11-10T13:46:32.000Z,284.27
2022-11-10T13:47:58.000Z,284.29
2022-11-10T13:50:04.000Z,284.3
2022-11-10T13:51:31.000Z,284.31
2022-11-10T13:53:37.000Z,284.33
2022-11-10T13:56:28.000Z,284.31
2022-11-10T13:57:55.000Z,284.29
2022-11-10T14:00:01.000Z,284.27
2022-11-10T14:01:27.000Z,284.26
2022-11-10T14:03:33.000Z,284.26
2022-11-10T14:05:00.000Z,284.26
2022-11-10T14:07:06.000Z,284.24
2022-11-10T14:08:33.000Z,284.2
2022-11-10T14:10:39.000Z,284.19
2022-11-10T14:12:05.000Z,284.17
2022-11-10T14:14:12.000Z,284.17
2022-11-10T14:15:38.000Z,284.17
2022-11-10T14:17:44.000Z,284.14
2022-11-10T14:19:11.000Z,284.14
2022-11-10T14:21:17.000Z,284.14
2022-11-10T14:22:43.000Z,284.14
2022-11-10T14:24:49.000Z,284.12
2022-11-10T14:26:16.000Z,284.11
2022-11-10T14:28:22.000Z,284.09
2022-11-10T14:29:49.000Z,284.08
2022-11-10T14:31:55.000Z,284.07
2022-11-10T14:34:46.000Z,284.05
2022-11-10T14:36:13.000Z,284.04
2022-11-10T14:38:19.000Z,284.01
2022-11-10T14:39:48.000Z,284.01
2022-11-10T14:41:54.000Z,284.01
2022-11-10T14:43:20.000Z,283.98
2022-11-10T14:45:26.000Z,283.96
2022-11-10T14:46:53.000Z,283.93
2022-11-10T14:48:59.000Z,283.86
2022-11-10T14:50:26.000Z,283.79
2022-11-10T14:52:32.000Z,283.76
2022-11-10T14:53:58.000Z,283.72
2022-11-10T14:56:04.000Z,283.66
2022-11-10T14:57:31.000Z,283.65
2022-11-10T14:59:37.000Z,283.59
2022-11-10T15:01:03.000Z,283.52
2022-11-10T15:03:10.000Z,283.47
2022-11-10T15:04:36.000Z,283.4
2022-11-10T15:06:42.000Z,283.33
2022-11-10T15:08:13.000Z,283.29
2022-11-10T15:10:19.000Z,283.26
2022-11-10T15:13:10.000Z,283.17
2022-11-10T15:14:37.000Z,283.13
2022-11-10T15:16:43.000Z,283.1
2022-11-10T15:18:10.000Z,283.03
2022-11-10T15:20:16.000Z,282.99
2022-11-10T15:21:42.000Z,282.92
2022-11-10T15:23:48.000Z,282.85
2022-11-10T15:25:15.000Z,282.79
2022-11-10T15:27:21.000Z,282.73
2022-11-10T15:28:47.000Z,282.63
2022-11-10T15:30:53.000Z,282.56
2022-11-10T15:32:20.000Z,282.46
2022-11-10T15:34:26.000Z,282.39
2022-11-10T15:35:52.000Z,282.31
2022-11-10T15:37:58.000Z,282.26
2022-11-10T15:39:25.000Z,282.19
2022-11-10T15:41:31.000Z,282.14
2022-11-10T15:42:58.000Z,282.09
2022-11-10T15:45:04.000Z,282.05
2022-11-10T15:46:30.000Z,282.01
2022-11-10T15:48:37.000Z,281.95
2022-11-10T15:51:28.000Z,281.85
2022-11-10T15:52:54.000Z,281.82
2022-11-10T15:55:00.000Z,281.77
2022-11-10T15:56:27.000Z,281.76
2022-11-10T15:58:33.000Z,281.75
2022-11-10T16:00:00.000Z,281.7
2022-11-10T16:02:06.000Z,281.69
2022-11-10T16:03:32.000Z,281.66
2022-11-10T16:05:38.000Z,281.63
2022-11-10T16:07:05.000Z,281.61
2022-11-10T16:09:11.000Z,281.59
2022-11-10T16:10:37.000Z,281.59
2022-11-10T16:12:44.000Z,281.58
2022-11-10T16:14:10.000Z,281.56
2022-11-10T16:16:16.000Z,281.58
2022-11-10T16:17:43.000Z,281.56
2022-11-10T16:19:49.000Z,281.55
2022-11-10T16:21:15.000Z,281.51
2022-11-10T16:23:21.000Z,281.49
2022-11-10T16:24:48.000Z,281.47
2022-11-10T16:26:54.000Z,281.4
2022-11-10T16:29:45.000Z,281.35
2022-11-10T16:31:12.000Z,281.32
2022-11-10T16:33:18.000Z,281.26
2022-11-10T16:34:44.000Z,281.23
2022-11-10T16:36:50.000Z,281.21
2022-11-10T16:38:17.000Z,281.19
2022-11-10T16:40:23.000Z,281.18
2022-11-10T16:41:49.000Z,281.12
2022-11-10T16:43:55.000Z,281.1
2022-11-10T16:45:22.000Z,281.07
2022-11-10T16:47:28.000Z,281.04
2022-11-10T16:48:54.000Z,281.01
2022-11-10T16:51:00.000Z,280.97
2022-11-10T16:52:27.000Z,280.93
2022-11-10T16:54:33.000Z,280.91
2022-11-10T16:56:00.000Z,280.84
2022-11-10T16:58:06.000Z,280.82
2022-11-10T16:59:32.000Z,280.76
2022-11-10T17:01:39.000Z,280.69
2022-11-10T17:03:05.000Z,280.64
2022-11-10T17:05:11.000Z,280.57
2022-11-10T17:08:02.000Z,280.49
2022-11-10T17:09:29.000Z,280.45
2022-11-10T17:11:35.000Z,280.38
2022-11-10T17:13:02.000Z,280.34
2022-11-10T17:15:08.000Z,280.31
2022-11-10T17:16:34.000Z,280.25
2022-11-10T17:18:40.000Z,280.24
2022-11-10T17:20:07.000Z,280.2
2022-11-10T17:22:13.000Z,280.16
2022-11-10T17:23:39.000Z,280.13
2022-11-10T17:25:46.000Z,280.09
2022-11-10T17:27:12.000Z,280.05
2022-11-10T17:29:18.000Z,279.99
2022-11-10T17:30:45.000Z,279.95
2022-11-10T17:32:51.000Z,279.92
2022-11-10T17:34:31.000Z,279.85
2022-11-10T17:36:37.000Z,279.86
2022-11-10T17:38:04.000Z,279.88
2022-11-10T17:40:10.000Z,279.88
2022-11-10T17:41:36.000Z,279.89
2022-11-10T17:43:42.000Z,279.89
2022-11-10T17:46:37.000Z,279.85
2022-11-10T17:48:03.000Z,279.84
2022-11-10T17:50:09.000Z,279.77
2022-11-10T17:51:36.000Z,279.73
2022-11-10T17:53:42.000Z,279.72
2022-11-10T17:55:08.000Z,279.69
2022-11-10T17:57:14.000Z,279.66
2022-11-10T17:58:41.000Z,279.65
2022-11-10T18:00:47.000Z,279.63
2022-11-10T18:02:13.000Z,279.6
2022-11-10T18:04:20.000Z,279.59
2022-11-10T18:05:46.000Z,279.58
2022-11-10T18:07:52.000Z,279.55
2022-11-10T18:09:19.000Z,279.54
2022-11-10T18:11:25.000Z,279.52
2022-11-10T18:12:51.000Z,279.52
2022-11-10T18:14:57.000Z,279.51
2022-11-10T18:16:24.000Z,279.49
2022-11-10T18:18:30.000Z,279.48
2022-11-10T18:19:56.000Z,279.45
2022-11-10T18:22:03.000Z,279.44
2022-11-10T18:24:54.000Z,279.37
2022-11-10T18:26:20.000Z,279.34
2022-11-10T18:28:27.000Z,279.26
2022-11-10T18:29:53.000Z,279.23
2022-11-10T18:31:59.000Z,279.22
2022-11-10T18:33:26.000Z,279.2
2022-11-10T18:35:32.000Z,279.16
2022-11-10T18:36:58.000Z,279.15
2022-11-10T18:39:05.000Z,279.13
2022-11-10T18:40:31.000Z,279.08
2022-11-10T18:42:37.000Z,279.05
2022-11-10T18:44:04.000Z,279.01
2022-11-10T18:46:10.000Z,278.99
2022-11-10T18:47:38.000Z,278.97
2022-11-10T18:49:44.000Z,278.94
2022-11-10T18:51:10.000Z,278.92
2022-11-10T18:53:16.000Z,278.89
2022-11-10T18:54:43.000Z,278.89
2022-11-10T18:56:49.000Z,278.86
2022-11-10T18:58:16.000Z,278.88
2022-11-10T19:00:22.000Z,278.83
2022-11-10T19:03:13.000Z,278.79
2022-11-10T19:04:39.000Z,278.78
2022-11-10T19:06:45.000Z,278.75
2022-11-10T19:08:12.000Z,278.74
2022-11-10T19:10:18.000Z,278.71
2022-11-10T19:11:45.000Z,278.69
2022-11-10T19:13:51.000Z,278.69
2022-11-10T19:15:17.000Z,278.65
2022-11-10T19:17:23.000Z,278.65
2022-11-10T19:18:50.000Z,278.64
2022-11-10T19:20:56.000Z,278.61
2022-11-10T19:22:23.000Z,278.58
2022-11-10T19:24:29.000Z,278.57
2022-11-10T19:26:04.000Z,278.56
2022-11-10T19:28:10.000Z,278.53
2022-11-10T19:29:36.000Z,278.5
2022-11-10T19:31:42.000Z,278.5
2022-11-10T19:33:09.000Z,278.49
2022-11-10T19:35:15.000Z,278.46
2022-11-10T19:36:42.000Z,278.46
2022-11-10T19:38:48.000Z,278.44
2022-11-10T19:41:39.000Z,278.46
2022-11-10T19:43:05.000Z,278.44
2022-11-10T19:45:11.000Z,278.42
2022-11-10T19:46:38.000Z,278.42
2022-11-10T19:48:44.000Z,278.39
2022-11-10T19:50:11.000Z,278.37
2022-11-10T19:52:17.000Z,278.36
2022-11-10T19:53:43.000Z,278.35
2022-11-10T19:55:49.000Z,278.35
2022-11-10T19:57:16.000Z,278.33
2022-11-10T19:59:22.000Z,278.32
2022-11-10T20:00:48.000Z,278.32
2022-11-10T20:02:54.000Z,278.32
2022-11-10T20:04:21.000Z,278.32
2022-11-10T20:06:27.000Z,278.3
2022-11-10T20:07:54.000Z,278.28
2022-11-10T20:10:00.000Z,278.26
2022-11-10T20:11:26.000Z,278.24
2022-11-10T20:13:32.000Z,278.24
2022-11-10T20:14:59.000Z,278.24
2022-11-10T20:17:05.000Z,278.2
2022-11-10T20:19:56.000Z,278.18
2022-11-10T20:21:23.000Z,278.18
2022-11-10T20:23:29.000Z,278.16
2022-11-10T20:24:55.000Z,278.13
2022-11-10T20:27:02.000Z,278.09
2022-11-10T20:28:28.000Z,278.06
2022-11-10T20:30:34.000Z,278.06
2022-11-10T20:32:01.000Z,278.04
2022-11-10T20:34:07.000Z,278.02
2022-11-10T20:35:33.000Z,277.99
2022-11-10T20:37:39.000Z,277.97
2022-11-10T20:39:06.000Z,277.97
2022-11-10T20:41:12.000Z,277.95
2022-11-10T20:42:39.000Z,277.93
2022-11-10T20:44:48.000Z,277.93
2022-11-10T20:46:15.000Z,277.95
2022-11-10T20:48:46.000Z,277.95
2022-11-10T20:50:13.000Z,277.99
2022-11-10T20:52:25.000Z,278.03
2022-11-10T20:53:51.000Z,278.11
2022-11-10T20:55:57.000Z,278.11
2022-11-10T20:58:48.000Z,278.22
2022-11-10T21:00:15.000Z,278.22
2022-11-10T21:02:21.000Z,278.22
2022-11-10T21:03:47.000Z,278.24
2022-11-10T21:05:54.000Z,278.2
2022-11-10T21:07:20.000Z,278.2
2022-11-10T21:09:26.000Z,278.2
2022-11-10T21:10:53.000Z,278.17
2022-11-10T21:12:59.000Z,278.16
2022-11-10T21:14:25.000Z,278.16
2022-11-10T21:16:31.000Z,278.16
2022-11-10T21:17:58.000Z,278.16
2022-11-10T21:20:04.000Z,278.14
2022-11-10T21:21:31.000Z,278.14
2022-11-10T21:23:37.000Z,278.13
2022-11-10T21:25:03.000Z,278.14
2022-11-10T21:27:09.000Z,278.13
2022-11-10T21:28:36.000Z,278.11
2022-11-10T21:30:42.000Z,278.09
2022-11-10T21:32:09.000Z,278.07
2022-11-10T21:34:15.000Z,278.07
2022-11-10T21:37:06.000Z,278.03
2022-11-10T21:38:32.000Z,277.99
2022-11-10T21:40:38.000Z,277.96
2022-11-10T21:42:05.000Z,277.91
2022-11-10T21:44:11.000Z,277.86
2022-11-10T21:45:37.000Z,277.84
2022-11-10T21:47:43.000Z,277.79
2022-11-10T21:49:10.000Z,277.78
2022-11-10T21:51:16.000Z,277.75
2022-11-10T21:52:42.000Z,277.75
2022-11-10T21:54:49.000Z,277.74
2022-11-10T21:56:15.000Z,277.72
2022-11-10T21:58:21.000Z,277.72
2022-11-10T21:59:48.000Z,277.7
2022-11-10T22:01:54.000Z,277.68
2022-11-10T22:03:20.000Z,277.65
2022-11-10T22:05:27.000Z,277.64
2022-11-10T22:06:54.000Z,277.63
2022-11-10T22:09:00.000Z,277.61
2022-11-10T22:10:26.000Z,277.56
2022-11-10T22:12:32.000Z,277.51
2022-11-10T22:15:24.000Z,277.45
2022-11-10T22:16:50.000Z,277.43
2022-11-10T22:18:56.000Z,277.4
2022-11-10T22:20:23.000Z,277.37
2022-11-10T22:22:29.000Z,277.36
2022-11-10T22:23:55.000Z,277.34
2022-11-10T22:26:01.000Z,277.33
2022-11-10T22:27:28.000Z,277.3
2022-11-10T22:29:34.000Z,277.29
2022-11-10T22:31:00.000Z,277.25
2022-11-10T22:33:06.000Z,277.23
2022-11-10T22:34:33.000Z,277.22
2022-11-10T22:36:39.000Z,277.19
2022-11-10T22:38:05.000Z,277.18
2022-11-10T22:40:12.000Z,277.16
2022-11-10T22:41:38.000Z,277.15
2022-11-10T22:43:44.000Z,277.15
2022-11-10T22:45:11.000Z,277.12
2022-11-10T22:47:17.000Z,277.12
2022-11-10T22:48:44.000Z,277.12
2022-11-10T22:50:50.000Z,277.11
2022-11-10T22:53:41.000Z,277.11